createdAt,value
2024-03-07T00:01:51.281Z,59.10
2024-03-07T00:04:20.018Z,52.50
2024-03-07T00:06:49.732Z,57.00
2024-03-07T00:09:18.174Z,55.90
2024-03-07T00:11:46.666Z,51.20
2024-03-07T00:14:15.087Z,62.80
2024-03-07T00:16:43.505Z,61.30
2024-03-07T00:19:12.011Z,53.80
2024-03-07T00:21:40.405Z,59.70
2024-03-07T00:24:09.599Z,50.90
2024-03-07T00:26:38.183Z,62.10
2024-03-07T00:29:07.969Z,57.20
2024-03-07T00:31:36.259Z,55.00
2024-03-07T00:34:10.336Z,52.40
2024-03-07T00:36:45.016Z,58.90
2024-03-07T00:39:13.578Z,58.50
2024-03-07T00:41:42.759Z,62.00
2024-03-07T00:44:11.331Z,53.00
2024-03-07T00:46:39.696Z,62.20
2024-03-07T00:49:07.986Z,55.70
2024-03-07T00:51:38.159Z,58.40
2024-03-07T00:54:08.573Z,59.30
2024-03-07T00:56:37.792Z,62.10
2024-03-07T00:59:06.883Z,54.80
2024-03-07T01:01:37.632Z,57.10
2024-03-07T01:04:06.384Z,49.70
2024-03-07T01:06:35.649Z,54.80
2024-03-07T01:09:04.706Z,55.50
2024-03-07T01:11:33.140Z,51.70
2024-03-07T01:14:01.484Z,53.40
2024-03-07T01:16:29.826Z,56.60
2024-03-07T01:18:59.182Z,50.90
2024-03-07T01:21:27.658Z,59.30
2024-03-07T01:23:56.068Z,53.10
2024-03-07T01:26:26.120Z,55.10
2024-03-07T01:28:56.104Z,55.40
2024-03-07T01:31:25.052Z,59.50
2024-03-07T01:33:53.503Z,53.40
2024-03-07T01:36:22.087Z,53.00
2024-03-07T01:38:50.469Z,52.20
2024-03-07T01:41:19.444Z,59.20
2024-03-07T01:43:47.804Z,55.60
2024-03-07T01:46:16.239Z,51.40
2024-03-07T01:48:45.130Z,55.50
2024-03-07T01:51:13.767Z,47.20
2024-03-07T01:53:42.481Z,50.30
2024-03-07T01:56:12.094Z,54.90
2024-03-07T01:58:41.036Z,46.60
2024-03-07T02:01:09.556Z,53.60
2024-03-07T02:03:38.190Z,51.10
2024-03-07T02:06:06.896Z,56.60
2024-03-07T02:08:36.199Z,49.80
2024-03-07T02:11:05.126Z,61.90
2024-03-07T02:13:33.537Z,55.90
2024-03-07T02:16:02.358Z,62.00
2024-03-07T02:18:30.649Z,61.90
2024-03-07T02:20:59.800Z,62.80
2024-03-07T02:23:29.127Z,54.50
2024-03-07T02:26:00.264Z,51.60
2024-03-07T02:28:30.218Z,54.10
2024-03-07T02:30:58.593Z,55.90
2024-03-07T02:33:27.226Z,64.30
2024-03-07T02:35:55.805Z,58.60
2024-03-07T02:38:24.142Z,52.80
2024-03-07T02:40:53.120Z,57.00
2024-03-07T02:43:22.504Z,58.20
2024-03-07T02:45:51.479Z,54.10
2024-03-07T02:48:20.152Z,61.00
2024-03-07T02:50:49.112Z,53.60
2024-03-07T02:53:18.197Z,64.80
2024-03-07T02:55:46.577Z,57.10
2024-03-07T02:58:15.348Z,54.90
2024-03-07T03:00:43.479Z,49.40
2024-03-07T03:03:11.669Z,59.20
2024-03-07T03:05:40.482Z,57.40
2024-03-07T03:08:09.078Z,49.50
2024-03-07T03:10:37.405Z,56.70
2024-03-07T03:13:06.099Z,55.20
2024-03-07T03:15:34.632Z,59.20
2024-03-07T03:18:04.796Z,53.00
2024-03-07T03:20:37.076Z,51.50
2024-03-07T03:23:15.452Z,54.30
2024-03-07T03:25:52.474Z,61.40
2024-03-07T03:28:22.590Z,53.70
2024-03-07T03:30:53.001Z,56.50
2024-03-07T03:33:24.471Z,58.10
2024-03-07T03:35:52.843Z,56.80
2024-03-07T03:38:22.874Z,59.50
2024-03-07T03:40:51.303Z,52.20
2024-03-07T03:43:19.972Z,57.70
2024-03-07T03:45:48.980Z,58.00
2024-03-07T03:48:17.985Z,58.10
2024-03-07T03:50:48.129Z,62.60
2024-03-07T03:53:16.689Z,56.40
2024-03-07T03:55:45.331Z,65.20
2024-03-07T03:58:16.209Z,63.00
2024-03-07T04:00:44.544Z,65.30
2024-03-07T04:03:13.051Z,67.10
2024-03-07T04:05:42.472Z,55.70
2024-03-07T04:08:11.522Z,59.20
2024-03-07T04:10:41.016Z,61.70
2024-03-07T04:13:09.688Z,70.30
2024-03-07T04:15:39.465Z,58.40
2024-03-07T04:18:09.074Z,64.20
2024-03-07T04:20:37.764Z,65.50
2024-03-07T04:23:08.705Z,66.60
2024-03-07T04:25:38.133Z,70.20
2024-03-07T04:28:06.594Z,66.50
2024-03-07T04:30:34.851Z,63.40
2024-03-07T04:33:03.517Z,65.90
2024-03-07T04:35:32.606Z,74.00
2024-03-07T04:38:01.057Z,65.70
2024-03-07T04:40:29.577Z,74.80
2024-03-07T04:42:58.019Z,74.30
2024-03-07T04:45:26.436Z,74.70
2024-03-07T04:47:54.817Z,73.00
2024-03-07T04:50:23.205Z,72.70
2024-03-07T04:52:51.676Z,76.70
2024-03-07T04:55:20.731Z,82.80
2024-03-07T04:57:49.723Z,74.60
2024-03-07T05:00:21.300Z,75.20
2024-03-07T05:02:52.413Z,79.50
2024-03-07T05:05:24.644Z,72.30
2024-03-07T05:07:54.051Z,76.20
2024-03-07T05:10:22.782Z,74.60
2024-03-07T05:12:51.987Z,66.60
2024-03-07T05:15:20.545Z,80.70
2024-03-07T05:17:48.994Z,80.50
2024-03-07T05:20:18.037Z,81.10
2024-03-07T05:22:52.305Z,92.70
2024-03-07T05:25:23.297Z,77.20
2024-03-07T05:27:52.357Z,77.30
2024-03-07T05:30:21.084Z,71.80
2024-03-07T05:32:49.665Z,86.10
2024-03-07T05:35:21.647Z,85.70
2024-03-07T05:37:52.758Z,79.80
2024-03-07T05:40:21.963Z,74.10
2024-03-07T05:42:50.928Z,69.80
2024-03-07T05:45:19.584Z,78.40
2024-03-07T05:47:49.396Z,68.20
2024-03-07T05:50:19.655Z,77.60
2024-03-07T05:52:50.077Z,90.10
2024-03-07T05:55:20.909Z,67.80
2024-03-07T05:57:49.381Z,67.50
2024-03-07T06:00:29.017Z,77.20
2024-03-07T06:02:58.317Z,75.60
2024-03-07T06:05:28.388Z,81.40
2024-03-07T06:07:57.873Z,87.30
2024-03-07T06:10:26.495Z,82.90
2024-03-07T06:15:26.494Z,97.20
2024-03-07T06:17:55.356Z,81.10
2024-03-07T06:20:24.393Z,79.60
2024-03-07T06:22:56.401Z,76.30
2024-03-07T06:25:35.643Z,78.80
2024-03-07T06:28:10.914Z,80.00
2024-03-07T06:30:44.284Z,72.30
2024-03-07T06:33:13.999Z,79.90
2024-03-07T06:35:42.862Z,74.70
2024-03-07T06:38:11.607Z,82.00
2024-03-07T06:40:41.626Z,78.40
2024-03-07T06:43:13.945Z,77.20
2024-03-07T06:45:47.426Z,85.40
2024-03-07T06:48:16.011Z,79.30
2024-03-07T06:50:46.261Z,76.10
2024-03-07T06:53:14.586Z,73.70
2024-03-07T06:55:43.190Z,67.90
2024-03-07T06:58:11.767Z,72.70
2024-03-07T07:00:41.635Z,82.70
2024-03-07T07:03:11.628Z,73.40
2024-03-07T07:05:43.455Z,67.50
2024-03-07T07:08:11.779Z,69.80
2024-03-07T07:10:41.541Z,74.70
2024-03-07T07:13:11.685Z,72.80
2024-03-07T07:15:40.555Z,65.90
2024-03-07T07:18:08.998Z,74.50
2024-03-07T07:20:38.374Z,77.00
2024-03-07T07:23:07.561Z,76.60
2024-03-07T07:25:36.057Z,68.30
2024-03-07T07:28:10.536Z,61.80
2024-03-07T07:30:39.706Z,71.20
2024-03-07T07:33:09.169Z,75.80
2024-03-07T07:35:38.609Z,87.70
2024-03-07T07:38:08.447Z,71.40
2024-03-07T07:40:37.493Z,75.90
2024-03-07T07:43:06.457Z,62.90
2024-03-07T07:45:37.619Z,65.60
2024-03-07T07:48:06.737Z,63.00
2024-03-07T07:50:36.193Z,73.70
2024-03-07T07:53:10.316Z,66.30
2024-03-07T07:55:39.808Z,68.30
2024-03-07T07:58:08.736Z,72.70
2024-03-07T08:00:38.364Z,60.20
2024-03-07T08:03:07.611Z,63.30
2024-03-07T08:05:37.570Z,69.30
2024-03-07T08:08:08.384Z,74.20
2024-03-07T08:10:41.275Z,69.20
2024-03-07T08:15:40.930Z,66.70
2024-03-07T08:18:12.773Z,59.00
2024-03-07T08:20:42.779Z,64.00
2024-03-07T08:23:12.149Z,56.60
2024-03-07T08:25:42.123Z,63.90
2024-03-07T08:28:10.921Z,60.00
2024-03-07T08:30:39.714Z,64.70
2024-03-07T08:33:08.898Z,66.00
2024-03-07T08:35:37.976Z,56.20
2024-03-07T08:38:06.605Z,62.10
2024-03-07T08:40:35.702Z,61.40
2024-03-07T08:43:05.143Z,63.60
2024-03-07T08:45:36.964Z,56.70
2024-03-07T08:48:06.728Z,58.80
2024-03-07T08:50:36.098Z,61.10
2024-03-07T08:53:08.758Z,68.30
2024-03-07T08:55:38.011Z,50.30
2024-03-07T08:58:10.080Z,56.60
2024-03-07T09:00:40.065Z,57.40
2024-03-07T09:03:13.716Z,67.30
2024-03-07T09:05:44.400Z,64.20
2024-03-07T09:08:12.819Z,68.10
2024-03-07T09:10:43.063Z,59.90
2024-03-07T09:13:12.492Z,62.60
2024-03-07T09:15:41.239Z,83.20
2024-03-07T09:18:10.418Z,58.30
2024-03-07T09:20:40.452Z,59.20
2024-03-07T09:23:09.023Z,57.20
2024-03-07T09:25:37.458Z,54.70
2024-03-07T09:28:07.723Z,54.40
2024-03-07T09:30:40.296Z,57.70
2024-03-07T09:33:12.396Z,55.20
2024-03-07T09:35:41.655Z,53.20
2024-03-07T09:38:10.282Z,52.50
2024-03-07T09:40:39.042Z,48.30
2024-03-07T09:43:11.214Z,56.50
2024-03-07T09:45:42.633Z,54.10
2024-03-07T09:48:14.373Z,51.20
2024-03-07T09:50:48.067Z,48.60
2024-03-07T09:53:18.329Z,48.50
2024-03-07T09:55:47.010Z,53.90
2024-03-07T09:58:20.961Z,53.10
2024-03-07T10:00:52.232Z,41.80
2024-03-07T10:03:25.162Z,40.40
2024-03-07T10:05:54.350Z,51.30
2024-03-07T10:08:25.345Z,55.70
2024-03-07T10:10:57.468Z,43.10
2024-03-07T10:13:27.184Z,45.80
2024-03-07T10:16:01.411Z,44.40
2024-03-07T10:18:30.415Z,43.10
2024-03-07T10:20:59.939Z,43.90
2024-03-07T10:23:28.580Z,41.80
2024-03-07T10:25:58.260Z,39.20
2024-03-07T10:28:29.361Z,43.90
2024-03-07T10:30:57.749Z,38.80
2024-03-07T10:33:29.847Z,47.00
2024-03-07T10:35:58.967Z,43.50
2024-03-07T10:38:27.309Z,44.60
2024-03-07T10:40:56.944Z,41.20
2024-03-07T10:43:30.586Z,48.30
2024-03-07T10:46:03.257Z,49.40
2024-03-07T10:48:40.536Z,41.50
2024-03-07T10:51:23.302Z,37.40
2024-03-07T10:54:15.550Z,35.90
2024-03-07T10:57:09.994Z,42.10
2024-03-07T10:59:43.352Z,42.00
2024-03-07T11:02:39.203Z,31.20
2024-03-07T11:05:13.481Z,52.20
2024-03-07T11:07:42.758Z,49.50
2024-03-07T11:10:13.069Z,45.80
2024-03-07T11:12:43.150Z,41.50
2024-03-07T11:15:16.486Z,42.70
2024-03-07T11:20:23.304Z,40.20
2024-03-07T11:22:54.891Z,37.70
2024-03-07T11:25:27.142Z,47.80
2024-03-07T11:28:02.398Z,41.80
2024-03-07T11:30:30.838Z,42.10
2024-03-07T11:33:03.414Z,44.80
2024-03-07T11:35:38.217Z,38.70
2024-03-07T11:38:11.994Z,35.70
2024-03-07T11:40:40.245Z,42.60
2024-03-07T11:43:08.926Z,41.70
2024-03-07T11:45:46.494Z,54.40
2024-03-07T11:48:16.073Z,48.10
2024-03-07T11:50:44.532Z,47.80
2024-03-07T11:53:13.018Z,51.20
2024-03-07T11:55:49.475Z,50.40
2024-03-07T11:58:22.519Z,61.50
2024-03-07T12:00:53.282Z,60.60
2024-03-07T12:03:23.448Z,51.40
2024-03-07T12:05:53.727Z,50.50
2024-03-07T12:08:26.269Z,52.50
2024-03-07T12:10:58.583Z,42.80
2024-03-07T12:13:29.416Z,45.60
2024-03-07T12:16:00.237Z,46.40
2024-03-07T12:18:30.578Z,47.70
2024-03-07T12:21:00.450Z,43.70
2024-03-07T12:23:29.569Z,44.10
2024-03-07T12:26:05.728Z,40.50
2024-03-07T12:28:35.794Z,44.90
2024-03-07T12:31:07.297Z,40.80
2024-03-07T12:33:41.066Z,48.50
2024-03-07T12:36:12.087Z,49.80
2024-03-07T12:38:43.555Z,46.80
2024-03-07T12:41:16.891Z,42.00
2024-03-07T12:43:47.523Z,46.00
2024-03-07T12:46:17.234Z,39.10
2024-03-07T12:48:50.874Z,46.30
2024-03-07T12:51:20.935Z,37.90
2024-03-07T12:53:50.523Z,37.20
2024-03-07T12:56:20.266Z,36.80
2024-03-07T12:58:51.597Z,38.50
2024-03-07T13:01:22.236Z,35.30
2024-03-07T13:03:51.297Z,50.70
2024-03-07T13:06:38.172Z,33.50
2024-03-07T13:09:11.800Z,38.30
2024-03-07T13:11:48.084Z,32.20
2024-03-07T13:14:16.450Z,40.80
2024-03-07T13:16:44.914Z,42.60
2024-03-07T13:19:13.397Z,38.20
2024-03-07T13:21:41.920Z,37.00
2024-03-07T13:24:11.014Z,35.20
2024-03-07T13:26:41.161Z,42.00
2024-03-07T13:29:11.244Z,33.60
2024-03-07T13:31:41.614Z,34.20
2024-03-07T13:34:16.869Z,28.70
2024-03-07T13:36:46.436Z,28.20
2024-03-07T13:39:17.881Z,26.90
2024-03-07T13:41:49.654Z,30.80
2024-03-07T13:44:20.858Z,37.20
2024-03-07T13:46:49.381Z,32.10
2024-03-07T13:49:18.670Z,46.70
2024-03-07T13:51:54.761Z,28.00
2024-03-07T13:54:49.797Z,37.40
2024-03-07T13:57:44.715Z,47.60
2024-03-07T14:00:22.056Z,30.70
2024-03-07T14:02:53.245Z,54.10
2024-03-07T14:05:41.654Z,34.80
2024-03-07T14:08:34.855Z,36.30
2024-03-07T14:11:36.709Z,35.60
2024-03-07T14:14:40.725Z,39.50
2024-03-07T14:19:56.178Z,27.90
2024-03-07T14:22:53.547Z,33.70
2024-03-07T14:25:56.662Z,33.10
2024-03-07T14:28:53.801Z,44.10
2024-03-07T14:31:23.963Z,34.70
2024-03-07T14:33:58.816Z,37.50
2024-03-07T14:36:47.045Z,42.40
2024-03-07T14:39:23.984Z,40.00
2024-03-07T14:42:05.549Z,30.90
2024-03-07T14:44:36.143Z,33.40
2024-03-07T14:47:07.528Z,36.70
2024-03-07T14:49:37.668Z,26.90
2024-03-07T14:52:17.241Z,32.80
2024-03-07T14:54:46.197Z,34.70
2024-03-07T14:57:14.879Z,33.90
2024-03-07T14:59:44.645Z,34.90
2024-03-07T15:02:15.389Z,34.70
2024-03-07T15:04:45.007Z,31.50
2024-03-07T15:07:13.279Z,33.30
2024-03-07T15:09:41.688Z,33.70
2024-03-07T15:12:10.526Z,41.60
2024-03-07T15:14:41.032Z,32.60
2024-03-07T15:17:10.674Z,29.40
2024-03-07T15:19:39.888Z,32.50
2024-03-07T15:22:08.548Z,27.70
2024-03-07T15:24:38.432Z,34.60
2024-03-07T15:27:06.998Z,47.60
2024-03-07T15:29:37.920Z,49.20
2024-03-07T15:32:09.503Z,48.40
2024-03-07T15:34:39.192Z,42.70
2024-03-07T15:37:09.159Z,38.30
2024-03-07T15:39:40.154Z,43.70
2024-03-07T15:42:10.695Z,43.00
2024-03-07T15:44:41.293Z,38.00
2024-03-07T15:47:09.829Z,41.10
2024-03-07T15:49:42.067Z,40.90
2024-03-07T15:52:10.977Z,40.90
2024-03-07T15:54:39.588Z,42.70
2024-03-07T15:57:08.020Z,40.20
2024-03-07T15:59:37.017Z,46.60
2024-03-07T16:02:06.082Z,54.10
2024-03-07T16:04:35.283Z,36.40
2024-03-07T16:07:04.833Z,53.30
2024-03-07T16:09:33.260Z,42.80
2024-03-07T16:12:03.165Z,44.60
2024-03-07T16:14:32.065Z,35.40
2024-03-07T16:17:00.572Z,46.10
2024-03-07T16:19:29.159Z,42.10
2024-03-07T16:21:57.664Z,39.20
2024-03-07T16:24:25.930Z,38.20
2024-03-07T16:26:54.571Z,39.00
2024-03-07T16:29:23.841Z,49.50
2024-03-07T16:31:52.474Z,53.50
2024-03-07T16:34:25.656Z,36.10
2024-03-07T16:36:57.819Z,43.20
2024-03-07T16:39:26.470Z,41.60
2024-03-07T16:41:54.997Z,39.70
2024-03-07T16:44:23.988Z,36.70
2024-03-07T16:46:52.806Z,39.60
2024-03-07T16:49:21.240Z,45.80
2024-03-07T16:51:50.166Z,36.50
2024-03-07T16:54:18.517Z,39.30
2024-03-07T16:56:47.182Z,52.40
2024-03-07T16:59:15.882Z,41.40
2024-03-07T17:01:46.728Z,43.10
2024-03-07T17:04:15.269Z,44.10
2024-03-07T17:06:43.849Z,51.00
2024-03-07T17:09:12.508Z,42.10
2024-03-07T17:11:42.688Z,43.90
2024-03-07T17:14:14.957Z,43.70
2024-03-07T17:16:44.441Z,50.50
2024-03-07T17:19:14.088Z,46.00
2024-03-07T17:21:42.680Z,47.60
2024-03-07T17:24:11.517Z,50.60
2024-03-07T17:26:40.378Z,46.30
2024-03-07T17:29:10.086Z,39.70
2024-03-07T17:31:38.346Z,47.50
2024-03-07T17:34:07.715Z,50.80
2024-03-07T17:36:36.114Z,152.90
2024-03-07T17:39:14.433Z,45.60
2024-03-07T17:41:43.465Z,43.10
2024-03-07T17:44:18.554Z,51.20
2024-03-07T17:46:47.504Z,44.30
2024-03-07T17:49:18.071Z,54.60
2024-03-07T17:51:46.368Z,47.90
2024-03-07T17:54:16.655Z,43.90
2024-03-07T17:56:45.254Z,50.60
2024-03-07T17:59:13.734Z,49.20
2024-03-07T18:01:43.906Z,65.50
2024-03-07T18:04:12.346Z,50.20
2024-03-07T18:06:40.859Z,44.50
2024-03-07T18:09:16.074Z,44.10
2024-03-07T18:11:44.490Z,41.00
2024-03-07T18:14:13.085Z,44.20
2024-03-07T18:16:41.384Z,46.10
2024-03-07T18:19:11.322Z,41.80
2024-03-07T18:21:40.173Z,37.10
2024-03-07T18:24:11.443Z,40.20
2024-03-07T18:26:39.996Z,43.00
2024-03-07T18:29:08.466Z,44.20
2024-03-07T18:31:37.275Z,42.90
2024-03-07T18:34:07.754Z,37.70
2024-03-07T18:36:36.333Z,37.90
2024-03-07T18:39:16.701Z,32.30
2024-03-07T18:41:52.176Z,57.50
2024-03-07T18:44:20.561Z,43.40
2024-03-07T18:46:49.045Z,36.60
2024-03-07T18:49:18.457Z,53.10
2024-03-07T18:51:50.220Z,35.30
2024-03-07T18:54:18.762Z,37.50
2024-03-07T18:56:47.981Z,37.20
2024-03-07T18:59:16.405Z,29.20
2024-03-07T19:01:45.077Z,38.10
2024-03-07T19:04:13.574Z,31.50
2024-03-07T19:06:42.635Z,34.90
2024-03-07T19:09:14.032Z,29.60
2024-03-07T19:11:47.047Z,31.30
2024-03-07T19:14:16.141Z,39.70
2024-03-07T19:16:52.812Z,31.90
2024-03-07T19:19:21.499Z,30.00
2024-03-07T19:21:50.365Z,30.80
2024-03-07T19:24:20.483Z,28.40
2024-03-07T19:26:52.264Z,37.90
2024-03-07T19:29:22.323Z,33.00
2024-03-07T19:31:54.083Z,35.60
2024-03-07T19:34:22.500Z,27.80
2024-03-07T19:36:55.024Z,30.20
2024-03-07T19:39:23.731Z,32.20
2024-03-07T19:41:58.990Z,27.10
2024-03-07T19:44:34.479Z,29.30
2024-03-07T19:47:06.226Z,31.70
2024-03-07T19:49:36.940Z,28.00
2024-03-07T19:52:11.608Z,27.90
2024-03-07T19:54:40.673Z,27.00
2024-03-07T19:57:12.553Z,29.10
2024-03-07T19:59:41.483Z,26.20
2024-03-07T20:02:10.013Z,31.60
2024-03-07T20:04:38.553Z,28.70
2024-03-07T20:07:12.005Z,27.60
2024-03-07T20:09:44.403Z,21.90
2024-03-07T20:12:17.669Z,26.10
2024-03-07T20:14:49.894Z,28.70
2024-03-07T20:17:18.316Z,24.60
2024-03-07T20:19:46.846Z,26.40
2024-03-07T20:22:15.686Z,28.60
2024-03-07T20:24:43.967Z,27.50
2024-03-07T20:27:12.839Z,32.00
2024-03-07T20:29:41.350Z,26.50
2024-03-07T20:32:10.364Z,25.10
2024-03-07T20:34:45.870Z,27.30
2024-03-07T20:37:14.213Z,29.50
2024-03-07T20:39:48.077Z,24.40
2024-03-07T20:42:19.750Z,26.10
2024-03-07T20:44:48.041Z,28.80
2024-03-07T20:47:16.403Z,26.20
2024-03-07T20:49:44.829Z,27.90
2024-03-07T20:52:13.104Z,33.80
2024-03-07T20:54:42.377Z,32.50
2024-03-07T20:57:11.080Z,28.60
2024-03-07T20:59:42.044Z,31.50
2024-03-07T21:02:10.510Z,30.50
2024-03-07T21:04:39.359Z,37.20
2024-03-07T21:07:09.773Z,32.50
2024-03-07T21:09:38.161Z,27.00
2024-03-07T21:12:09.632Z,29.20
2024-03-07T21:14:38.760Z,31.40
2024-03-07T21:17:12.424Z,29.90
2024-03-07T21:19:40.978Z,30.60
2024-03-07T21:22:09.933Z,28.60
2024-03-07T21:24:38.198Z,31.10
2024-03-07T21:27:07.561Z,34.50
2024-03-07T21:29:36.215Z,27.00
2024-03-07T21:32:05.476Z,31.20
2024-03-07T21:34:33.914Z,33.10
2024-03-07T21:37:03.153Z,26.50
2024-03-07T21:39:31.889Z,28.60
2024-03-07T21:42:00.454Z,31.10
2024-03-07T21:44:30.656Z,29.80
2024-03-07T21:47:00.034Z,25.40
2024-03-07T21:49:28.564Z,26.30
2024-03-07T21:51:57.103Z,27.80
2024-03-07T21:54:25.478Z,27.00
2024-03-07T21:56:54.109Z,27.30
2024-03-07T21:59:22.812Z,26.10
2024-03-07T22:01:51.295Z,25.80
2024-03-07T22:04:20.046Z,21.00
2024-03-07T22:06:48.976Z,25.60
2024-03-07T22:09:17.554Z,28.90
2024-03-07T22:11:46.059Z,25.10
2024-03-07T22:14:18.730Z,29.80
2024-03-07T22:16:54.897Z,24.70
2024-03-07T22:19:23.564Z,28.70
2024-03-07T22:21:51.901Z,31.80
2024-03-07T22:24:20.604Z,32.00
2024-03-07T22:26:49.320Z,25.70
2024-03-07T22:29:17.905Z,27.80
2024-03-07T22:31:46.402Z,23.20
2024-03-07T22:34:17.875Z,26.70
2024-03-07T22:36:53.549Z,22.50
2024-03-07T22:39:21.996Z,26.50
2024-03-07T22:41:51.196Z,29.00
2024-03-07T22:44:19.800Z,30.00
2024-03-07T22:46:48.574Z,31.30
2024-03-07T22:49:17.329Z,27.80
2024-03-07T22:51:45.563Z,27.70
2024-03-07T22:54:14.374Z,27.50
2024-03-07T22:56:44.655Z,31.20
2024-03-07T22:59:13.430Z,28.70
2024-03-07T23:01:42.839Z,26.90
2024-03-07T23:04:14.377Z,29.00
2024-03-07T23:06:43.068Z,30.20
2024-03-07T23:09:11.760Z,29.20
2024-03-07T23:11:41.094Z,31.30
2024-03-07T23:14:09.575Z,31.20
2024-03-07T23:16:38.022Z,30.10
2024-03-07T23:19:06.580Z,29.40
2024-03-07T23:21:35.063Z,29.20
2024-03-07T23:24:03.837Z,31.50
2024-03-07T23:26:33.437Z,33.80
2024-03-07T23:29:03.097Z,35.20
2024-03-07T23:31:31.670Z,39.10
2024-03-07T23:34:00.171Z,32.20
2024-03-07T23:36:30.489Z,34.10
2024-03-07T23:38:58.937Z,33.50
2024-03-07T23:41:27.368Z,31.20
2024-03-07T23:43:56.292Z,31.70
2024-03-07T23:46:25.239Z,29.20
2024-03-07T23:48:54.042Z,38.70
2024-03-07T23:51:22.908Z,31.60
2024-03-07T23:53:51.633Z,36.00
2024-03-07T23:56:19.924Z,35.00
2024-03-07T23:58:48.731Z,34.40
